Time;durP1;ratioP1;P1;durP2;ratioP2;P2;SDS_P1;SDS_P2;PMS_P1;PMS_P2;Temp;Humidity;BMP_temperature;BMP_pressure;BME280_temperature;BME280_humidity;BME280_pressure;Samples;Min_cycle;Max_cycle;Signal;HPM_P1;HPM_P2
2022/03/23 00:01:41;;;;;;;60.10;37.77;;;7.40;99.90;;;;;;6208945;23;20079;-36
2022/03/23 00:04:06;;;;;;;61.77;38.43;;;7.40;99.90;;;;;;6207953;23;20028;-36
2022/03/23 00:06:33;;;;;;;59.63;39.73;;;7.40;99.90;;;;;;6189622;23;20016;-34
2022/03/23 00:09:00;;;;;;;63.20;41.23;;;7.30;99.90;;;;;;6205901;23;20029;-37
2022/03/23 00:11:26;;;;;;;61.27;40.97;;;7.30;99.90;;;;;;6207945;23;20460;-35
2022/03/23 00:13:52;;;;;;;63.33;39.17;;;7.30;99.90;;;;;;6205201;23;20110;-36
2022/03/23 00:16:18;;;;;;;55.60;37.33;;;7.20;99.90;;;;;;6195826;23;20017;-37
2022/03/23 00:18:43;;;;;;;55.10;37.63;;;7.20;99.90;;;;;;6201293;23;20044;-34
2022/03/23 00:21:09;;;;;;;61.53;38.63;;;7.10;99.90;;;;;;6207412;23;20335;-37
2022/03/23 00:23:35;;;;;;;59.03;38.33;;;7.20;99.90;;;;;;6208031;23;20025;-37
2022/03/23 00:26:02;;;;;;;55.80;39.50;;;7.10;99.90;;;;;;6207327;23;20028;-33
2022/03/23 00:28:28;;;;;;;57.97;38.90;;;7.00;99.90;;;;;;6188711;23;20016;-37
2022/03/23 00:30:54;;;;;;;58.30;38.93;;;7.10;99.90;;;;;;6209217;23;20025;-33
2022/03/23 00:33:22;;;;;;;59.33;38.13;;;6.90;99.90;;;;;;6207897;23;20036;-33
2022/03/23 00:35:49;;;;;;;53.40;36.27;;;6.90;99.90;;;;;;6208281;23;20028;-35
2022/03/23 00:38:16;;;;;;;52.53;36.93;;;6.90;99.90;;;;;;6189112;23;20460;-35
2022/03/23 00:40:44;;;;;;;55.10;37.10;;;6.80;99.90;;;;;;6209821;23;20340;-36
2022/03/23 00:43:11;;;;;;;52.70;34.83;;;6.80;99.90;;;;;;6207953;23;20050;-33
2022/03/23 00:45:38;;;;;;;50.20;34.00;;;6.80;99.90;;;;;;6209464;23;20019;-35
2022/03/23 00:48:04;;;;;;;51.43;33.03;;;6.70;99.90;;;;;;6188299;23;20457;-36
2022/03/23 00:50:30;;;;;;;50.13;35.30;;;6.70;99.90;;;;;;6209217;23;20031;-33
2022/03/23 00:52:56;;;;;;;51.50;35.43;;;6.60;99.90;;;;;;6208466;23;20092;-36
2022/03/23 00:55:22;;;;;;;54.27;33.50;;;6.60;99.90;;;;;;6209153;23;20379;-36
2022/03/23 00:57:48;;;;;;;49.77;35.43;;;6.60;99.90;;;;;;6186894;23;20012;-35
2022/03/23 01:00:16;;;;;;;56.20;35.87;;;6.50;99.90;;;;;;6208707;23;20461;-35
2022/03/23 01:02:43;;;;;;;51.90;36.53;;;6.50;99.90;;;;;;6207982;23;20103;-37
2022/03/23 01:05:11;;;;;;;58.70;39.90;;;6.40;99.90;;;;;;6208813;23;20048;-33
2022/03/23 01:07:40;;;;;;;58.63;40.47;;;6.40;99.90;;;;;;6189280;23;20111;-35
2022/03/23 01:10:11;;;;;;;60.07;40.03;;;6.40;99.90;;;;;;6209233;23;20016;-36
2022/03/23 01:12:38;;;;;;;62.30;41.88;;;6.30;99.90;;;;;;6208370;23;20021;-37
2022/03/23 01:15:04;;;;;;;65.60;43.40;;;6.30;99.90;;;;;;6208550;23;20483;-36
2022/03/23 01:17:30;;;;;;;67.70;43.97;;;6.30;99.90;;;;;;6188583;23;20848;-32
2022/03/23 01:19:57;;;;;;;60.77;41.20;;;6.30;99.90;;;;;;6207016;23;20087;-35
2022/03/23 01:22:22;;;;;;;64.80;43.70;;;6.30;99.90;;;;;;6208780;23;20025;-31
2022/03/23 01:24:48;;;;;;;64.17;41.07;;;6.20;99.90;;;;;;6210680;23;20078;-35
2022/03/23 01:27:14;;;;;;;66.90;43.67;;;6.20;99.90;;;;;;6190964;23;20021;-34
2022/03/23 01:29:39;;;;;;;67.07;44.27;;;6.20;99.90;;;;;;6210122;23;20024;-35
2022/03/23 01:32:05;;;;;;;62.00;42.50;;;6.10;99.90;;;;;;6209603;23;20020;-34
2022/03/23 01:34:31;;;;;;;66.67;41.67;;;6.10;99.90;;;;;;6208069;23;20013;-34
2022/03/23 01:36:57;;;;;;;68.87;43.37;;;6.10;99.90;;;;;;6191271;23;20344;-31
2022/03/23 01:39:22;;;;;;;69.33;45.17;;;6.10;99.90;;;;;;6209698;23;20031;-34
2022/03/23 01:41:48;;;;;;;62.97;42.37;;;6.10;99.90;;;;;;6211075;23;20025;-34
2022/03/23 01:44:21;;;;;;;69.23;43.57;;;6.10;99.90;;;;;;6209520;23;20364;-33
2022/03/23 01:47:06;;;;;;;68.73;43.77;;;6.00;99.90;;;;;;6192167;23;20017;-36
2022/03/23 01:49:33;;;;;;;68.57;44.80;;;6.00;99.90;;;;;;6207405;23;20032;-34
2022/03/23 01:51:59;;;;;;;70.63;44.43;;;6.00;99.90;;;;;;6210824;23;20020;-32
2022/03/23 01:54:25;;;;;;;65.47;42.47;;;6.00;99.90;;;;;;6209328;23;20553;-35
2022/03/23 01:56:51;;;;;;;68.03;44.87;;;6.00;99.90;;;;;;6191801;23;20392;-32
2022/03/23 01:59:18;;;;;;;70.90;44.47;;;5.90;99.90;;;;;;6207060;23;20024;-32
2022/03/23 02:01:44;;;;;;;66.43;43.37;;;5.90;99.90;;;;;;6209780;23;20067;-34
2022/03/23 02:04:09;;;;;;;65.80;43.90;;;5.90;99.90;;;;;;6205939;23;20416;-31
2022/03/23 02:06:36;;;;;;;75.67;45.30;;;5.90;99.90;;;;;;6193539;23;20021;-34
2022/03/23 02:09:02;;;;;;;61.27;41.63;;;5.90;99.90;;;;;;6207207;23;20028;-34
2022/03/23 02:11:29;;;;;;;66.43;43.70;;;5.80;99.90;;;;;;6210678;23;20353;-33
2022/03/23 02:13:55;;;;;;;75.20;44.97;;;5.80;99.90;;;;;;6208698;23;20059;-34
2022/03/23 02:19:04;;;;;;;68.73;43.40;;;5.80;99.90;;;;;;5072070;27;20456;-36
2022/03/23 02:21:30;;;;;;;60.43;39.80;;;5.80;99.90;;;;;;5065828;28;20507;-36
2022/03/23 02:23:56;;;;;;;63.77;41.40;;;5.80;99.90;;;;;;5048387;28;20049;-35
2022/03/23 02:26:25;;;;;;;60.13;39.70;;;5.70;99.90;;;;;;5032861;28;20459;-35
2022/03/23 02:28:52;;;;;;;62.87;41.17;;;5.60;99.90;;;;;;5041096;28;20111;-35
2022/03/23 02:31:17;;;;;;;67.97;43.40;;;5.60;99.90;;;;;;5045284;28;20045;-34
2022/03/23 02:33:43;;;;;;;65.07;41.40;;;5.60;99.90;;;;;;5044290;28;20114;-34
2022/03/23 02:36:09;;;;;;;64.70;41.67;;;5.60;99.90;;;;;;5037049;28;20049;-35
2022/03/23 02:38:34;;;;;;;67.53;41.63;;;5.60;99.90;;;;;;5036745;28;20041;-35
2022/03/23 02:41:00;;;;;;;65.40;42.80;;;5.60;99.90;;;;;;5044962;28;20132;-34
2022/03/23 02:43:28;;;;;;;71.40;46.97;;;5.60;99.90;;;;;;5066112;28;20131;-36
2022/03/23 02:45:54;;;;;;;63.60;41.47;;;5.50;99.90;;;;;;5078124;28;20526;-33
2022/03/23 02:48:19;;;;;;;73.10;44.47;;;5.60;99.90;;;;;;5056136;28;20064;-36
2022/03/23 02:50:45;;;;;;;70.80;45.37;;;5.50;99.90;;;;;;5063505;28;20045;-36
2022/03/23 03:01:53;;;;;;;78.50;46.70;;;5.40;99.90;;;;;;5083238;28;20118;-32
2022/03/23 03:04:23;;;;;;;72.50;42.90;;;5.30;99.90;;;;;;5072542;28;20052;-35
2022/03/23 03:06:50;;;;;;;73.33;46.20;;;5.40;99.90;;;;;;5067517;28;20091;-34
2022/03/23 03:09:16;;;;;;;71.93;46.37;;;5.30;99.90;;;;;;5064682;28;20056;-32
2022/03/23 03:11:43;;;;;;;71.00;46.87;;;5.30;99.90;;;;;;5064480;28;20044;-35
2022/03/23 03:14:11;;;;;;;71.50;45.77;;;5.30;99.90;;;;;;5063179;28;20057;-35
2022/03/23 03:16:36;;;;;;;71.87;44.60;;;5.30;99.90;;;;;;5050554;28;20045;-38
2022/03/23 03:19:05;;;;;;;69.40;45.33;;;5.20;99.90;;;;;;5042049;28;20053;-34
2022/03/23 03:21:32;;;;;;;63.27;41.37;;;5.20;99.90;;;;;;5059931;28;20076;-35
2022/03/23 03:23:58;;;;;;;68.90;45.50;;;5.30;99.90;;;;;;5063274;28;20049;-36
2022/03/23 03:26:24;;;;;;;73.30;46.07;;;5.20;99.90;;;;;;5051294;28;20082;-35
2022/03/23 03:28:50;;;;;;;68.90;44.93;;;5.20;99.90;;;;;;5054599;28;20049;-35
2022/03/23 03:31:16;;;;;;;74.20;45.73;;;5.10;99.90;;;;;;5050460;28;20116;-35
2022/03/23 03:33:43;;;;;;;72.87;45.23;;;5.10;99.90;;;;;;5048453;28;20144;-33
2022/03/23 03:36:09;;;;;;;73.53;45.47;;;5.20;99.90;;;;;;5041380;28;20159;-36
2022/03/23 03:38:36;;;;;;;65.70;43.80;;;5.00;99.90;;;;;;5042463;28;20140;-37
2022/03/23 03:41:03;;;;;;;68.57;43.93;;;5.00;99.90;;;;;;5066011;28;20045;-33
2022/03/23 03:43:31;;;;;;;69.93;44.77;;;5.00;99.90;;;;;;5049695;28;20099;-36
2022/03/23 03:45:57;;;;;;;67.70;43.77;;;5.00;99.90;;;;;;5043363;28;20500;-35
2022/03/23 03:48:23;;;;;;;73.37;44.17;;;5.00;99.90;;;;;;5031717;28;20064;-34
2022/03/23 03:50:49;;;;;;;63.93;42.33;;;5.00;99.90;;;;;;5050101;28;20057;-34
2022/03/23 03:53:15;;;;;;;64.20;40.00;;;5.00;99.90;;;;;;5048161;28;20053;-35
2022/03/23 03:55:41;;;;;;;63.53;40.17;;;4.90;99.90;;;;;;5048616;28;20049;-35
2022/03/23 03:58:08;;;;;;;63.90;39.03;;;4.90;99.90;;;;;;5033913;28;20123;-34
2022/03/23 04:00:35;;;;;;;68.03;40.70;;;4.90;99.90;;;;;;5049929;28;20045;-34
2022/03/23 04:03:01;;;;;;;61.23;40.50;;;5.00;99.90;;;;;;5049306;28;20041;-33
2022/03/23 04:05:28;;;;;;;63.30;40.63;;;4.90;99.90;;;;;;5029748;28;20389;-33
2022/03/23 04:07:55;;;;;;;60.03;39.97;;;4.80;99.90;;;;;;5012232;28;20068;-34
2022/03/23 04:10:22;;;;;;;58.17;38.47;;;4.90;99.90;;;;;;5028551;28;20132;-32
2022/03/23 04:12:48;;;;;;;65.47;41.17;;;4.80;99.90;;;;;;5028943;28;20049;-32
2022/03/23 04:15:14;;;;;;;61.93;38.97;;;4.80;99.90;;;;;;5028269;28;20099;-31
2022/03/23 04:17:41;;;;;;;58.23;38.20;;;4.80;99.90;;;;;;5013184;28;20492;-34
2022/03/23 04:20:08;;;;;;;57.43;37.83;;;4.80;99.90;;;;;;5033528;28;20040;-34
2022/03/23 04:22:34;;;;;;;60.33;39.13;;;4.80;99.90;;;;;;5048841;28;20152;-35
2022/03/23 04:24:59;;;;;;;58.53;38.63;;;4.70;99.90;;;;;;5047518;28;20167;-35
2022/03/23 04:27:25;;;;;;;61.73;40.20;;;4.70;99.90;;;;;;5033229;28;20041;-31
2022/03/23 04:29:51;;;;;;;66.10;40.50;;;4.70;99.90;;;;;;5049394;28;20041;-33
2022/03/23 04:32:17;;;;;;;64.10;39.87;;;4.70;99.90;;;;;;5047533;28;20053;-33
2022/03/23 04:34:43;;;;;;;58.77;38.90;;;4.70;99.90;;;;;;5048845;28;20579;-31
2022/03/23 04:37:09;;;;;;;54.07;37.83;;;4.70;99.90;;;;;;5033719;28;20047;-31
2022/03/23 04:39:35;;;;;;;63.37;39.63;;;4.70;99.90;;;;;;5049505;28;20055;-31
2022/03/23 04:42:00;;;;;;;59.90;37.73;;;4.60;99.90;;;;;;5047119;28;20037;-32
2022/03/23 04:44:26;;;;;;;58.60;37.77;;;4.60;99.90;;;;;;5048214;28;20068;-34
2022/03/23 04:46:52;;;;;;;56.27;37.30;;;4.60;99.90;;;;;;5024778;28;20045;-34
2022/03/23 04:49:18;;;;;;;58.87;37.47;;;4.60;99.90;;;;;;5046920;28;20051;-33
2022/03/23 04:51:44;;;;;;;61.53;39.30;;;4.60;99.90;;;;;;5048909;28;20049;-35
2022/03/23 04:54:09;;;;;;;60.47;38.33;;;4.50;99.90;;;;;;5048383;28;20072;-34
2022/03/23 04:56:35;;;;;;;59.03;38.30;;;4.50;99.90;;;;;;5034662;28;20056;-33
2022/03/23 04:59:01;;;;;;;60.53;38.57;;;4.50;99.90;;;;;;5046250;28;20052;-32
2022/03/23 05:01:27;;;;;;;55.90;36.87;;;4.50;99.90;;;;;;5048698;28;20048;-33
2022/03/23 05:03:52;;;;;;;59.43;37.33;;;4.50;99.90;;;;;;5041323;28;20056;-34
2022/03/23 05:06:19;;;;;;;60.80;37.67;;;4.50;99.90;;;;;;5030074;28;20488;-34
2022/03/23 05:08:45;;;;;;;60.27;37.57;;;4.40;99.90;;;;;;5043175;28;20061;-35
2022/03/23 05:11:10;;;;;;;61.13;37.83;;;4.40;99.90;;;;;;5030910;28;20036;-33
2022/03/23 05:13:36;;;;;;;52.63;35.43;;;4.50;99.90;;;;;;5047927;28;20118;-33
2022/03/23 05:16:03;;;;;;;55.10;35.47;;;4.40;99.90;;;;;;5048125;28;20055;-35
2022/03/23 05:18:29;;;;;;;51.53;33.43;;;4.40;99.90;;;;;;5010821;28;20099;-31
2022/03/23 05:20:55;;;;;;;49.63;33.53;;;4.40;99.90;;;;;;5028508;28;20064;-34
2022/03/23 05:23:20;;;;;;;55.13;36.00;;;4.40;99.90;;;;;;5026482;28;20049;-32
2022/03/23 05:25:46;;;;;;;56.07;36.93;;;4.40;99.90;;;;;;5027026;28;20049;-35
2022/03/23 05:28:12;;;;;;;52.97;35.77;;;4.40;99.90;;;;;;5011790;28;20053;-34
2022/03/23 05:30:38;;;;;;;61.77;40.63;;;4.30;99.90;;;;;;5028161;28;20061;-34
2022/03/23 05:33:04;;;;;;;60.07;38.10;;;4.40;99.90;;;;;;5027461;28;20046;-33
2022/03/23 05:35:30;;;;;;;65.30;40.27;;;4.30;99.90;;;;;;5027942;28;20053;-34
2022/03/23 05:37:55;;;;;;;62.87;38.90;;;4.30;99.90;;;;;;5012402;28;20041;-34
2022/03/23 05:40:21;;;;;;;58.70;38.17;;;4.40;99.90;;;;;;5026725;28;20420;-32
2022/03/23 05:42:48;;;;;;;57.30;36.53;;;4.30;99.90;;;;;;5028020;28;20041;-35
2022/03/23 05:45:14;;;;;;;53.57;36.30;;;4.30;99.90;;;;;;5033824;28;20465;-34
2022/03/23 05:47:40;;;;;;;55.47;36.53;;;4.30;99.90;;;;;;5028351;28;20033;-34
2022/03/23 05:50:10;;;;;;;55.97;37.00;;;4.30;99.90;;;;;;5048023;28;20033;-34
2022/03/23 05:52:38;;;;;;;64.30;39.03;;;4.30;99.90;;;;;;5047184;28;20480;-33
2022/03/23 05:55:07;;;;;;;56.93;38.10;;;4.30;99.90;;;;;;5047957;28;20400;-31
2022/03/23 05:57:33;;;;;;;63.23;39.27;;;4.30;99.90;;;;;;5031196;28;20045;-34
2022/03/23 05:59:59;;;;;;;56.00;36.70;;;4.30;99.90;;;;;;5042473;28;20060;-33
2022/03/23 06:02:26;;;;;;;57.43;36.63;;;4.30;99.90;;;;;;5027177;28;20068;-35
2022/03/23 06:04:51;;;;;;;53.40;36.97;;;4.30;99.90;;;;;;5025908;28;20124;-34
2022/03/23 06:07:17;;;;;;;56.97;38.97;;;4.30;99.90;;;;;;5011964;28;20125;-34
2022/03/23 06:09:44;;;;;;;57.87;38.57;;;4.30;99.90;;;;;;5027751;28;20048;-31
2022/03/23 06:12:12;;;;;;;54.13;38.03;;;4.30;99.90;;;;;;5027004;28;20128;-31
2022/03/23 06:14:42;;;;;;;60.20;37.47;;;4.30;99.90;;;;;;5026391;28;20107;-34
2022/03/23 06:17:08;;;;;;;58.70;36.93;;;4.40;99.90;;;;;;5011334;28;20096;-32
2022/03/23 06:19:34;;;;;;;59.13;37.77;;;4.40;99.90;;;;;;5027843;28;20140;-35
2022/03/23 06:22:00;;;;;;;57.47;37.57;;;4.40;99.90;;;;;;5027362;28;20136;-31
2022/03/23 06:24:26;;;;;;;53.53;36.83;;;4.40;99.90;;;;;;5027038;28;20412;-32
2022/03/23 06:26:51;;;;;;;54.43;35.47;;;4.50;99.90;;;;;;5012299;28;20112;-34
2022/03/23 06:29:17;;;;;;;52.07;34.70;;;4.50;99.90;;;;;;5026437;28;20049;-32
2022/03/23 06:31:43;;;;;;;54.57;36.23;;;4.60;99.90;;;;;;5026885;28;20061;-32
2022/03/23 06:34:09;;;;;;;55.37;36.23;;;4.60;99.90;;;;;;5025149;28;20111;-33
2022/03/23 06:36:35;;;;;;;58.23;37.03;;;4.70;99.90;;;;;;5026394;28;20132;-31
2022/03/23 06:39:01;;;;;;;57.73;36.63;;;4.70;99.90;;;;;;5045876;28;20694;-34
2022/03/23 06:41:27;;;;;;;55.90;37.23;;;4.80;99.90;;;;;;5047313;28;20045;-34
2022/03/23 06:43:52;;;;;;;57.47;37.47;;;4.80;99.90;;;;;;5046797;28;20140;-35
2022/03/23 06:46:18;;;;;;;66.83;42.20;;;4.90;99.90;;;;;;5027100;28;20065;-36
2022/03/23 06:48:45;;;;;;;82.40;49.17;;;5.00;99.90;;;;;;5032600;28;20048;-36
2022/03/23 06:51:11;;;;;;;85.27;53.43;;;5.00;99.90;;;;;;5047391;28;20084;-35
2022/03/23 06:53:37;;;;;;;92.63;57.30;;;5.10;99.90;;;;;;5044340;28;20123;-36
2022/03/23 06:56:04;;;;;;;103.17;60.07;;;5.20;99.90;;;;;;5047479;28;20081;-36
2022/03/23 06:58:29;;;;;;;105.27;63.37;;;5.30;99.90;;;;;;5030969;28;20063;-35
2022/03/23 07:00:57;;;;;;;103.03;62.27;;;5.30;99.90;;;;;;5046916;28;20041;-34
2022/03/23 07:03:23;;;;;;;100.53;60.97;;;5.40;99.90;;;;;;5043668;28;20049;-35
2022/03/23 07:05:49;;;;;;;100.13;61.40;;;5.50;99.90;;;;;;5040758;28;20128;-32
2022/03/23 07:10:59;;;;;;;102.97;62.13;;;5.70;99.90;;;;;;5050751;28;20052;-36
2022/03/23 07:13:25;;;;;;;96.47;59.70;;;5.70;99.90;;;;;;5048934;28;20415;-35
2022/03/23 07:15:50;;;;;;;93.87;58.23;;;5.80;99.90;;;;;;5045064;28;20083;-32
2022/03/23 07:18:16;;;;;;;96.33;58.80;;;5.90;99.90;;;;;;5014966;28;20056;-35
2022/03/23 07:20:42;;;;;;;102.67;61.93;;;6.00;99.90;;;;;;5030491;28;20081;-32
2022/03/23 07:23:08;;;;;;;97.97;62.30;;;6.10;99.90;;;;;;5035838;28;20043;-32
2022/03/23 07:25:34;;;;;;;93.67;59.43;;;6.20;99.90;;;;;;5047856;28;20494;-35
2022/03/23 07:27:59;;;;;;;102.40;62.47;;;6.30;99.90;;;;;;5033324;28;20045;-35
2022/03/23 07:30:26;;;;;;;97.37;60.80;;;6.40;99.90;;;;;;5044563;28;20044;-33
2022/03/23 07:32:53;;;;;;;94.37;59.90;;;6.40;99.90;;;;;;5049164;28;20535;-34
2022/03/23 07:35:19;;;;;;;100.83;62.10;;;6.50;99.90;;;;;;5045701;28;20041;-34
2022/03/23 07:37:45;;;;;;;101.10;64.13;;;6.60;99.90;;;;;;5032684;28;20092;-33
2022/03/23 07:40:11;;;;;;;99.50;64.67;;;6.70;99.90;;;;;;5049513;28;20080;-33
2022/03/23 07:42:37;;;;;;;102.23;63.47;;;6.80;99.90;;;;;;5045165;28;20127;-35
2022/03/23 07:45:05;;;;;;;104.00;62.33;;;6.90;99.90;;;;;;5044828;28;20453;-34
2022/03/23 07:47:30;;;;;;;97.97;63.03;;;7.00;99.90;;;;;;5013177;28;20048;-31
2022/03/23 07:49:56;;;;;;;101.17;62.30;;;7.10;99.90;;;;;;5029047;28;20034;-35
2022/03/23 07:52:22;;;;;;;95.23;61.23;;;7.20;99.90;;;;;;5033438;28;20045;-34
2022/03/23 07:54:47;;;;;;;97.63;61.43;;;7.30;99.90;;;;;;5042174;28;20466;-35
2022/03/23 07:57:13;;;;;;;101.20;64.00;;;7.30;99.90;;;;;;5026404;28;20048;-35
2022/03/23 07:59:39;;;;;;;101.03;61.97;;;7.50;99.90;;;;;;5031761;28;20054;-38
2022/03/23 08:02:05;;;;;;;94.47;59.83;;;7.50;99.90;;;;;;5039889;28;20492;-34
2022/03/23 08:04:32;;;;;;;94.77;63.33;;;7.60;99.90;;;;;;5037835;28;20041;-35
2022/03/23 08:07:00;;;;;;;93.30;61.40;;;7.70;99.90;;;;;;5025554;28;20401;-34
2022/03/23 08:09:26;;;;;;;94.77;60.50;;;7.80;99.90;;;;;;5037666;28;20060;-35
2022/03/23 08:11:52;;;;;;;94.60;60.83;;;7.90;99.90;;;;;;5040868;28;20480;-36
2022/03/23 08:14:18;;;;;;;94.33;59.73;;;8.00;99.90;;;;;;5056966;28;20075;-36
2022/03/23 08:16:43;;;;;;;91.13;59.27;;;8.20;99.90;;;;;;5042018;28;20080;-33
2022/03/23 08:19:09;;;;;;;91.77;60.00;;;8.30;99.90;;;;;;5054511;28;20492;-33
2022/03/23 08:21:35;;;;;;;88.67;59.60;;;8.30;99.90;;;;;;5057138;28;20041;-37
2022/03/23 08:24:01;;;;;;;92.63;57.97;;;8.50;99.90;;;;;;5043932;28;20408;-35
2022/03/23 08:26:27;;;;;;;85.27;57.20;;;8.50;99.90;;;;;;5024391;28;20443;-33
2022/03/23 08:28:52;;;;;;;94.57;57.70;;;8.70;99.90;;;;;;5033225;28;20110;-35
2022/03/23 08:31:19;;;;;;;87.67;54.83;;;8.70;99.90;;;;;;5038220;28;20087;-35
2022/03/23 08:33:44;;;;;;;88.00;56.83;;;8.80;99.90;;;;;;5035735;28;20424;-37
2022/03/23 08:36:10;;;;;;;89.27;54.73;;;8.90;99.90;;;;;;5027288;28;20331;-36
2022/03/23 08:38:36;;;;;;;80.77;53.00;;;8.90;99.90;;;;;;5030583;28;20073;-33
2022/03/23 08:41:04;;;;;;;85.37;52.20;;;9.10;99.90;;;;;;5034840;28;20029;-36
2022/03/23 08:43:30;;;;;;;77.70;49.23;;;9.10;99.90;;;;;;5034910;28;20123;-35
2022/03/23 08:45:56;;;;;;;74.77;48.93;;;9.30;99.90;;;;;;5037274;28;20033;-36
2022/03/23 08:48:21;;;;;;;69.30;45.47;;;9.40;99.90;;;;;;5032776;28;20037;-36
2022/03/23 08:50:49;;;;;;;69.40;45.40;;;9.50;99.90;;;;;;5054756;28;20102;-35
2022/03/23 08:53:15;;;;;;;70.53;43.83;;;9.60;99.90;;;;;;5038305;28;20049;-36
2022/03/23 08:55:41;;;;;;;68.10;45.07;;;9.70;99.90;;;;;;5059783;28;20075;-36
2022/03/23 08:58:07;;;;;;;62.27;41.97;;;9.80;99.90;;;;;;5039056;28;20464;-34
2022/03/23 09:00:33;;;;;;;65.73;44.57;;;9.90;99.90;;;;;;5042386;28;20753;-36
2022/03/23 09:02:59;;;;;;;66.10;45.30;;;10.10;99.90;;;;;;5046982;28;20045;-36
2022/03/23 09:05:25;;;;;;;69.10;44.53;;;10.20;99.90;;;;;;5058884;28;20410;-34
2022/03/23 09:07:51;;;;;;;65.70;45.77;;;10.30;99.90;;;;;;5040996;28;20051;-34
2022/03/23 09:10:18;;;;;;;63.10;43.57;;;10.20;99.90;;;;;;5056353;28;20511;-37
2022/03/23 09:12:44;;;;;;;65.50;46.40;;;10.40;99.90;;;;;;5055544;28;20048;-36
2022/03/23 09:15:12;;;;;;;65.00;46.10;;;10.50;99.90;;;;;;5057394;28;20056;-35
2022/03/23 09:17:38;;;;;;;64.50;43.70;;;10.60;99.90;;;;;;5038277;28;20064;-34
2022/03/23 09:20:05;;;;;;;59.57;41.57;;;10.80;99.90;;;;;;5060017;28;20131;-36
2022/03/23 09:22:37;;;;;;;69.30;42.80;;;10.90;99.90;;;;;;5053596;28;20653;-36
2022/03/23 09:25:09;;;;;;;63.17;43.13;;;10.90;99.90;;;;;;5053098;28;20550;-36
2022/03/23 09:27:35;;;;;;;;;;;11.10;99.90;;;;;;5031819;28;20037;-35
2022/03/23 09:30:09;;;;;;;60.80;41.40;;;11.20;99.90;;;;;;5055880;28;20381;-37
2022/03/23 09:32:35;;;;;;;57.87;39.83;;;11.30;99.90;;;;;;5056110;28;20045;-35
2022/03/23 09:35:01;;;;;;;58.80;38.83;;;11.40;99.90;;;;;;5051847;28;20036;-36
2022/03/23 09:40:11;;;;;;;54.92;35.25;;;11.70;99.90;;;;;;5056890;28;20534;-37
2022/03/23 09:42:39;;;;;;;51.80;32.33;;;11.80;99.90;;;;;;5058791;28;20103;-36
2022/03/23 09:45:05;;;;;;;48.67;34.20;;;12.00;99.90;;;;;;5054193;28;20059;-37
2022/03/23 09:47:31;;;;;;;46.63;32.40;;;12.10;99.90;;;;;;5044186;28;20131;-37
2022/03/23 09:49:57;;;;;;;45.50;30.90;;;12.20;99.90;;;;;;5065681;28;20543;-37
2022/03/23 09:52:23;;;;;;;45.60;30.98;;;12.30;99.90;;;;;;5065547;28;21978;-36
2022/03/23 09:54:48;;;;;;;47.03;31.23;;;12.40;99.90;;;;;;5065752;28;20480;-38
2022/03/23 09:57:14;;;;;;;44.55;31.58;;;12.60;99.90;;;;;;5045107;28;20040;-37
2022/03/23 09:59:41;;;;;;;45.25;29.80;;;12.60;99.90;;;;;;5053277;28;20186;-38
2022/03/23 10:02:31;;;;;;;45.03;29.90;;;12.70;99.90;;;;;;5059782;28;20055;-35
2022/03/23 10:05:45;;;;;;;43.45;28.83;;;12.90;99.90;;;;;;5041692;28;20064;-38
2022/03/23 10:08:48;;;;;;;41.95;28.17;;;13.10;99.90;;;;;;5027148;28;20055;-38
2022/03/23 10:11:39;;;;;;;44.97;28.48;;;13.20;99.90;;;;;;5042260;28;20388;-37
2022/03/23 10:14:29;;;;;;;41.90;27.85;;;13.40;99.90;;;;;;5042844;28;20093;-36
2022/03/23 10:17:29;;;;;;;44.42;26.92;;;13.40;99.90;;;;;;5027814;28;20527;-37
2022/03/23 10:19:55;;;;;;;41.83;26.17;;;13.60;99.90;;;;;;5043724;28;20124;-38
2022/03/23 10:22:26;;;;;;;36.13;24.73;;;13.70;99.90;;;;;;5041197;28;20210;-36
2022/03/23 10:24:52;;;;;;;34.30;25.00;;;13.90;99.90;;;;;;5047262;28;20480;-37
2022/03/23 10:27:20;;;;;;;36.40;24.27;;;14.00;99.90;;;;;;5031146;28;20033;-37
2022/03/23 10:29:52;;;;;;;32.60;23.23;;;14.00;99.90;;;;;;5044029;28;20037;-38
2022/03/23 10:32:21;;;;;;;32.45;22.63;;;14.20;99.90;;;;;;5049119;28;20148;-37
2022/03/23 10:34:55;;;;;;;33.22;23.13;;;14.20;99.90;;;;;;5067333;28;20072;-37
2022/03/23 10:37:32;;;;;;;28.08;21.30;;;14.40;99.90;;;;;;5044086;28;20045;-35
2022/03/23 10:40:01;;;;;;;30.35;22.67;;;14.40;99.90;;;;;;5060382;28;20079;-37
2022/03/23 10:42:30;;;;;;;35.97;21.25;;;14.50;99.90;;;;;;5057520;28;20040;-37
2022/03/23 10:45:11;;;;;;;31.38;21.70;;;14.60;99.90;;;;;;5069806;28;20109;-38
2022/03/23 10:47:39;;;;;;;27.25;20.52;;;14.70;99.90;;;;;;5051989;28;20422;-37
2022/03/23 10:50:20;;;;;;;30.77;20.40;;;14.80;99.90;;;;;;5067471;28;20083;-36
2022/03/23 10:53:00;;;;;;;32.17;19.20;;;14.90;99.90;;;;;;5059796;28;20037;-37
2022/03/23 10:55:32;;;;;;;26.35;19.98;;;15.10;99.90;;;;;;5065760;28;20029;-36
2022/03/23 10:58:00;;;;;;;27.23;19.45;;;15.20;99.90;;;;;;5042917;28;20053;-36
2022/03/23 11:00:30;;;;;;;28.65;19.38;;;15.30;99.90;;;;;;5042173;28;20049;-36
2022/03/23 11:02:57;;;;;;;29.40;18.20;;;15.40;99.90;;;;;;5037495;28;20049;-35
2022/03/23 11:05:41;;;;;;;30.05;16.67;;;15.50;99.90;;;;;;5065811;28;20079;-38
2022/03/23 11:08:18;;;;;;;31.63;18.20;;;15.60;98.90;;;;;;5051028;28;20063;-36
2022/03/23 11:16:26;;;;;;;30.17;17.05;;;15.90;99.20;;;;;;5056853;28;20132;-35
2022/03/23 11:19:12;;;;;;;28.77;18.02;;;16.00;99.30;;;;;;5066218;28;20053;-37
2022/03/23 11:22:12;;;;;;;27.90;18.13;;;16.10;97.00;;;;;;5052570;28;20523;-36
2022/03/23 11:24:40;;;;;;;30.70;14.02;;;16.20;94.10;;;;;;5048580;28;20045;-37
2022/03/23 11:27:11;;;;;;;26.00;16.38;;;16.30;95.50;;;;;;5049033;28;20047;-35
2022/03/23 11:29:39;;;;;;;23.55;15.57;;;16.40;94.70;;;;;;5070146;28;20032;-35
2022/03/23 11:32:11;;;;;;;29.90;17.48;;;16.40;95.60;;;;;;5069437;28;20627;-38
2022/03/23 11:34:39;;;;;;;27.35;17.27;;;16.50;94.60;;;;;;5050215;28;20133;-36
2022/03/23 11:37:07;;;;;;;30.38;17.60;;;16.60;94.30;;;;;;5033589;28;20045;-38
2022/03/23 11:39:34;;;;;;;26.65;16.77;;;16.60;93.30;;;;;;5050123;28;20103;-36
2022/03/23 11:42:03;;;;;;;27.48;16.55;;;16.70;93.00;;;;;;5048766;28;20060;-37
2022/03/23 11:44:29;;;;;;;30.23;15.93;;;16.80;92.70;;;;;;5047004;28;20052;-36
2022/03/23 11:47:14;;;;;;;31.70;15.43;;;16.80;91.30;;;;;;5028613;28;20049;-35
2022/03/23 11:49:49;;;;;;;25.73;15.48;;;16.90;91.00;;;;;;5048544;28;20092;-37
2022/03/23 11:52:42;;;;;;;31.05;14.45;;;17.10;91.00;;;;;;5051426;28;20077;-36
2022/03/23 11:55:37;;;;;;;23.55;13.45;;;17.20;87.40;;;;;;5068797;28;20142;-36
2022/03/23 11:58:15;;;;;;;26.77;15.35;;;17.30;87.00;;;;;;5053762;28;20052;-37
2022/03/23 12:00:45;;;;;;;30.63;15.02;;;17.40;89.50;;;;;;5058359;28;20384;-37
2022/03/23 12:03:12;;;;;;;30.95;16.65;;;17.40;87.50;;;;;;5049368;28;20044;-36
2022/03/23 12:05:51;;;;;;;29.50;15.82;;;17.50;87.60;;;;;;5032052;28;20102;-37
2022/03/23 12:08:58;;;;;;;24.52;15.18;;;17.50;83.70;;;;;;5034839;28;20082;-35
2022/03/23 12:11:43;;;;;;;24.52;16.48;;;17.60;81.30;;;;;;5062642;28;20380;-35
2022/03/23 12:14:31;;;;;;;25.02;15.60;;;17.60;82.10;;;;;;5058686;28;20068;-37
2022/03/23 12:16:56;;;;;;;24.00;15.48;;;17.60;81.40;;;;;;5049810;28;20179;-36
2022/03/23 12:19:31;;;;;;;23.25;13.65;;;17.70;84.50;;;;;;5048269;28;20521;-36
2022/03/23 12:22:06;;;;;;;22.63;11.52;;;17.70;81.90;;;;;;5049860;28;20424;-36
2022/03/23 12:24:35;;;;;;;17.58;10.88;;;17.70;81.40;;;;;;5047589;28;20082;-37
2022/03/23 12:27:11;;;;;;;27.45;11.82;;;17.80;80.60;;;;;;5048035;28;20049;-36
2022/03/23 12:29:43;;;;;;;26.08;10.85;;;17.80;79.40;;;;;;5066911;28;20053;-35
2022/03/23 12:32:10;;;;;;;23.98;11.88;;;17.80;79.70;;;;;;5068849;28;20083;-37
2022/03/23 12:34:38;;;;;;;26.13;11.75;;;17.90;81.10;;;;;;5069525;28;20043;-34
2022/03/23 12:37:09;;;;;;;27.38;13.10;;;17.90;78.90;;;;;;5052323;28;20071;-37
2022/03/23 12:40:05;;;;;;;21.38;12.90;;;18.00;78.20;;;;;;5067858;28;20052;-37
2022/03/23 12:42:34;;;;;;;26.85;12.27;;;18.00;74.00;;;;;;5068479;28;20065;-35
2022/03/23 12:45:21;;;;;;;24.15;12.18;;;18.00;77.50;;;;;;5067297;28;20117;-35
2022/03/23 12:47:56;;;;;;;23.42;11.00;;;18.10;75.30;;;;;;5052884;28;20166;-35
2022/03/23 12:59:18;;;;;;;26.55;12.55;;;18.30;75.20;;;;;;5066144;28;20098;-35
2022/03/23 13:01:45;;;;;;;26.63;12.65;;;18.20;74.70;;;;;;5048578;28;20064;-36
2022/03/23 13:04:49;;;;;;;27.63;14.00;;;18.40;75.80;;;;;;5067858;28;20433;-36
2022/03/23 13:07:35;;;;;;;21.15;13.40;;;18.40;74.80;;;;;;5052845;28;20055;-36
2022/03/23 13:10:08;;;;;;;22.27;12.65;;;18.50;73.60;;;;;;5068740;28;20105;-37
2022/03/23 13:12:34;;;;;;;30.17;12.35;;;18.60;75.30;;;;;;5068032;28;20072;-36